createdAt,value
2022-12-08T00:00:53.019Z,17.33
2022-12-08T00:03:23.608Z,21.33
2022-12-08T00:06:08.912Z,17.63
2022-12-08T00:08:51.479Z,22.77
2022-12-08T00:11:22.831Z,18.00
2022-12-08T00:13:53.364Z,17.53
2022-12-08T00:16:23.479Z,17.20
2022-12-08T00:18:53.657Z,16.03
2022-12-08T00:21:26.302Z,18.37
2022-12-08T00:23:58.475Z,20.87
2022-12-08T00:26:28.589Z,14.03
2022-12-08T00:28:58.881Z,17.80
2022-12-08T00:31:29.056Z,16.37
2022-12-08T00:33:59.445Z,18.30
2022-12-08T00:36:32.705Z,16.20
2022-12-08T00:39:03.437Z,20.63
2022-12-08T00:41:46.004Z,20.30
2022-12-08T00:44:19.955Z,13.23
2022-12-08T00:46:51.486Z,15.90
2022-12-08T00:49:22.750Z,14.50
2022-12-08T00:51:55.694Z,15.77
2022-12-08T00:54:26.151Z,15.67
2022-12-08T00:56:56.427Z,15.37
2022-12-08T00:59:26.505Z,16.40
2022-12-08T01:01:56.596Z,17.33
2022-12-08T01:04:27.817Z,18.60
2022-12-08T01:07:00.431Z,20.60
2022-12-08T01:09:30.470Z,21.83
2022-12-08T01:12:00.594Z,15.40
2022-12-08T01:14:30.936Z,17.27
2022-12-08T01:17:01.092Z,12.93
2022-12-08T01:19:31.224Z,21.20
2022-12-08T01:22:03.881Z,13.83
2022-12-08T01:24:34.505Z,16.93
2022-12-08T01:27:04.655Z,16.87
2022-12-08T01:29:34.806Z,15.13
2022-12-08T01:32:05.270Z,17.83
2022-12-08T01:34:35.391Z,16.77
2022-12-08T01:37:08.216Z,20.17
2022-12-08T01:39:38.690Z,24.97
2022-12-08T01:42:08.997Z,18.53
2022-12-08T01:45:08.577Z,18.60
2022-12-08T01:47:45.580Z,19.70
2022-12-08T01:50:19.940Z,23.87
2022-12-08T01:52:57.774Z,22.20
2022-12-08T01:55:34.844Z,18.53
2022-12-08T01:58:14.358Z,20.27
2022-12-08T02:00:44.797Z,17.97
2022-12-08T02:03:23.096Z,22.00
2022-12-08T02:05:54.849Z,22.83
2022-12-08T02:08:28.738Z,20.60
2022-12-08T02:10:58.860Z,16.73
2022-12-08T02:13:29.180Z,21.53
2022-12-08T02:16:11.894Z,19.50
2022-12-08T02:22:11.406Z,18.23
2022-12-08T02:24:54.729Z,20.17
2022-12-08T02:27:43.142Z,16.77
2022-12-08T02:30:27.843Z,18.37
2022-12-08T02:33:53.432Z,21.47
2022-12-08T02:36:35.351Z,19.30
2022-12-08T02:39:19.373Z,18.50
2022-12-08T02:42:02.455Z,16.10
2022-12-08T02:44:41.883Z,19.13
2022-12-08T02:47:16.942Z,22.30
2022-12-08T02:49:49.928Z,21.60
2022-12-08T02:52:46.483Z,22.03
2022-12-08T02:55:29.500Z,23.23
2022-12-08T02:58:35.365Z,19.07
2022-12-08T03:01:34.297Z,18.87
2022-12-08T03:04:15.227Z,16.80
2022-12-08T03:07:00.546Z,23.10
2022-12-08T03:09:41.094Z,24.07
2022-12-08T03:12:21.137Z,23.77
2022-12-08T03:14:56.646Z,22.70
2022-12-08T03:17:32.210Z,19.67
2022-12-08T03:20:11.989Z,26.03
2022-12-08T03:22:47.180Z,16.53
2022-12-08T03:25:22.800Z,24.70
2022-12-08T03:27:55.055Z,18.83
2022-12-08T03:30:25.166Z,21.87
2022-12-08T03:33:05.128Z,19.37
2022-12-08T03:35:40.484Z,20.43
2022-12-08T03:38:16.683Z,16.30
2022-12-08T03:41:09.675Z,18.40
2022-12-08T03:43:40.229Z,15.30
2022-12-08T03:46:10.331Z,21.97
2022-12-08T03:48:40.335Z,20.37
2022-12-08T03:51:10.817Z,23.27
2022-12-08T03:53:43.623Z,20.70
2022-12-08T03:56:26.341Z,26.47
2022-12-08T03:58:57.668Z,20.77
2022-12-08T04:01:28.427Z,18.37
2022-12-08T04:03:58.654Z,18.70
2022-12-08T04:06:29.019Z,18.30
2022-12-08T04:09:02.073Z,19.63
2022-12-08T04:11:32.100Z,16.67
2022-12-08T04:14:02.177Z,21.57
2022-12-08T04:16:32.288Z,23.13
2022-12-08T04:19:02.286Z,16.40
2022-12-08T04:21:32.646Z,17.93
2022-12-08T04:24:05.395Z,19.27
2022-12-08T04:26:35.426Z,21.30
2022-12-08T04:29:05.472Z,19.37
2022-12-08T04:31:35.591Z,17.80
2022-12-08T04:34:05.753Z,19.03
2022-12-08T04:36:35.943Z,18.63
2022-12-08T04:39:08.621Z,22.57
2022-12-08T04:41:38.623Z,23.97
2022-12-08T04:44:08.644Z,20.23
2022-12-08T04:46:43.122Z,21.20
2022-12-08T04:49:13.925Z,20.60
2022-12-08T04:51:43.959Z,19.40
2022-12-08T04:54:16.586Z,18.13
2022-12-08T04:56:46.601Z,21.30
2022-12-08T04:59:16.894Z,20.97
2022-12-08T05:01:47.162Z,19.63
2022-12-08T05:04:17.349Z,24.20
2022-12-08T05:06:47.334Z,21.70
2022-12-08T05:09:19.946Z,28.77
2022-12-08T05:11:50.011Z,26.47
2022-12-08T05:14:21.691Z,23.10
2022-12-08T05:16:51.920Z,15.80
2022-12-08T05:19:22.227Z,26.07
2022-12-08T05:21:52.267Z,23.27
2022-12-08T05:24:25.218Z,24.87
2022-12-08T05:26:55.219Z,26.97
2022-12-08T05:29:25.292Z,23.03
2022-12-08T05:31:55.404Z,24.37
2022-12-08T05:34:25.718Z,43.10
2022-12-08T05:36:55.795Z,33.00
2022-12-08T05:39:28.744Z,33.90
2022-12-08T05:41:59.603Z,20.83
2022-12-08T05:44:29.894Z,25.57
2022-12-08T05:46:59.881Z,28.60
2022-12-08T05:49:30.005Z,34.53
2022-12-08T05:52:00.162Z,32.83
2022-12-08T05:54:32.846Z,28.43
2022-12-08T05:57:03.174Z,22.63
2022-12-08T05:59:33.331Z,27.53
2022-12-08T06:02:03.641Z,29.10
2022-12-08T06:04:33.764Z,27.03
2022-12-08T06:07:03.887Z,26.90
2022-12-08T06:09:36.554Z,31.37
2022-12-08T06:12:06.983Z,29.47
2022-12-08T06:14:37.039Z,22.23
2022-12-08T06:17:07.138Z,22.07
2022-12-08T06:19:37.273Z,30.87
2022-12-08T06:22:24.456Z,26.77
2022-12-08T06:24:57.017Z,31.20
2022-12-08T06:27:27.176Z,23.00
2022-12-08T06:29:57.670Z,28.33
2022-12-08T06:32:27.869Z,23.63
2022-12-08T06:34:57.970Z,35.27
2022-12-08T06:37:28.709Z,26.63
2022-12-08T06:40:01.552Z,24.90
2022-12-08T06:42:47.288Z,26.87
2022-12-08T06:45:19.885Z,26.60
2022-12-08T06:47:49.978Z,32.03
2022-12-08T06:50:20.178Z,36.43
2022-12-08T06:53:01.047Z,25.77
2022-12-08T06:56:06.345Z,42.00
2022-12-08T06:58:27.479Z,36.33
2022-12-08T07:00:57.615Z,35.33
2022-12-08T07:03:27.717Z,33.30
2022-12-08T07:06:03.805Z,39.00
2022-12-08T07:08:34.731Z,30.57
2022-12-08T07:11:19.642Z,36.43
2022-12-08T07:13:51.738Z,42.83
2022-12-08T07:16:24.589Z,42.87
2022-12-08T07:18:54.649Z,29.57
2022-12-08T07:21:24.763Z,32.50
2022-12-08T07:23:57.847Z,47.47
2022-12-08T07:26:30.823Z,38.10
2022-12-08T07:29:02.382Z,40.83
2022-12-08T07:31:32.688Z,37.20
2022-12-08T07:34:02.806Z,28.73
2022-12-08T07:36:32.930Z,34.47
2022-12-08T07:39:03.047Z,35.83
2022-12-08T07:41:36.175Z,30.37
2022-12-08T07:44:07.080Z,36.20
2022-12-08T07:46:37.196Z,29.87
2022-12-08T07:49:07.639Z,30.70
2022-12-08T07:51:37.685Z,34.40
2022-12-08T07:54:08.004Z,30.73
2022-12-08T07:56:40.659Z,43.70
2022-12-08T07:59:10.690Z,33.07
2022-12-08T08:01:45.181Z,32.03
2022-12-08T08:04:15.938Z,31.70
2022-12-08T08:06:46.286Z,34.00
2022-12-08T08:09:16.340Z,29.27
2022-12-08T08:12:07.479Z,40.00
2022-12-08T08:14:39.059Z,31.70
2022-12-08T08:17:09.310Z,38.97
2022-12-08T08:19:40.031Z,35.60
2022-12-08T08:22:10.055Z,32.63
2022-12-08T08:24:44.618Z,33.57
2022-12-08T08:27:17.807Z,37.90
2022-12-08T08:29:47.880Z,32.57
2022-12-08T08:32:18.068Z,28.50
2022-12-08T08:34:48.199Z,30.30
2022-12-08T08:37:18.417Z,37.60
2022-12-08T08:39:48.481Z,32.03
2022-12-08T08:42:21.101Z,29.63
2022-12-08T08:44:51.195Z,28.87
2022-12-08T08:47:22.479Z,31.77
2022-12-08T08:49:52.576Z,31.03
2022-12-08T08:52:22.604Z,43.50
2022-12-08T08:54:52.634Z,31.33
2022-12-08T08:57:26.121Z,32.67
2022-12-08T08:59:56.728Z,29.33
2022-12-08T09:02:26.964Z,30.00
2022-12-08T09:04:57.034Z,32.70
2022-12-08T09:07:27.231Z,26.83
2022-12-08T09:10:01.639Z,36.67
2022-12-08T09:12:34.850Z,31.63
2022-12-08T09:15:05.193Z,37.40
2022-12-08T09:17:35.263Z,37.90
2022-12-08T09:20:05.710Z,32.03
2022-12-08T09:22:35.949Z,31.40
2022-12-08T09:25:06.391Z,30.47
2022-12-08T09:27:39.093Z,36.40
2022-12-08T09:30:11.849Z,33.03
2022-12-08T09:32:42.638Z,30.70
2022-12-08T09:35:12.996Z,31.97
2022-12-08T09:37:43.115Z,34.73
2022-12-08T09:40:21.339Z,23.60
2022-12-08T09:43:03.066Z,27.53
2022-12-08T09:45:38.436Z,26.40
2022-12-08T09:48:16.249Z,31.80
2022-12-08T09:50:55.040Z,28.83
2022-12-08T09:53:35.674Z,37.00
2022-12-08T09:56:12.606Z,29.17
2022-12-08T09:58:54.496Z,27.60
2022-12-08T10:01:29.548Z,32.20
2022-12-08T10:04:00.310Z,21.10
2022-12-08T10:06:36.398Z,19.60
2022-12-08T10:09:35.079Z,24.23
2022-12-08T10:12:19.966Z,20.97
2022-12-08T10:15:01.961Z,16.70
2022-12-08T10:17:38.589Z,23.00
2022-12-08T10:20:17.731Z,23.20
2022-12-08T10:22:55.936Z,19.93
2022-12-08T10:25:37.848Z,22.40
2022-12-08T10:28:08.116Z,18.63
2022-12-08T10:30:40.760Z,20.80
2022-12-08T10:33:18.424Z,20.13
2022-12-08T10:35:51.493Z,24.47
2022-12-08T10:38:30.380Z,22.60
2022-12-08T10:41:09.183Z,26.33
2022-12-08T10:43:45.331Z,26.33
2022-12-08T10:46:21.665Z,19.00
2022-12-08T10:48:58.470Z,16.97
2022-12-08T10:51:32.788Z,16.67
2022-12-08T10:54:06.058Z,22.13
2022-12-08T10:56:36.526Z,17.23
2022-12-08T10:59:21.630Z,17.97
2022-12-08T11:01:57.572Z,20.10
2022-12-08T11:04:40.149Z,14.87
2022-12-08T11:07:13.691Z,16.13
2022-12-08T11:09:49.161Z,16.30
2022-12-08T11:12:22.212Z,18.07
2022-12-08T11:15:01.135Z,15.07
2022-12-08T11:17:43.941Z,20.07
2022-12-08T11:20:25.922Z,15.33
2022-12-08T11:22:57.997Z,14.63
2022-12-08T11:25:30.255Z,14.07
2022-12-08T11:28:03.190Z,11.60
2022-12-08T11:30:40.612Z,14.30
2022-12-08T11:33:21.259Z,15.30
2022-12-08T11:35:59.337Z,15.80
2022-12-08T11:38:32.088Z,14.00
2022-12-08T11:41:14.023Z,11.27
2022-12-08T11:43:54.653Z,16.63
2022-12-08T11:46:28.713Z,11.57
2022-12-08T11:49:07.242Z,11.50
2022-12-08T11:51:42.919Z,11.60
2022-12-08T11:54:24.508Z,13.40
2022-12-08T11:56:59.140Z,9.67
2022-12-08T11:59:35.914Z,9.80
2022-12-08T12:02:11.015Z,8.63
2022-12-08T12:04:52.116Z,15.13
2022-12-08T12:07:50.863Z,11.23
2022-12-08T12:10:40.198Z,11.70
2022-12-08T12:13:52.349Z,10.80
2022-12-08T12:17:00.304Z,10.53
2022-12-08T12:19:36.622Z,11.20
2022-12-08T12:22:19.392Z,10.10
2022-12-08T12:24:54.528Z,13.83
2022-12-08T12:27:33.715Z,15.27
2022-12-08T12:30:09.898Z,11.90
2022-12-08T12:32:51.885Z,11.67
2022-12-08T12:35:34.421Z,8.97
2022-12-08T12:38:32.175Z,10.70
2022-12-08T12:41:06.940Z,8.83
2022-12-08T12:43:39.831Z,8.50
2022-12-08T12:46:56.012Z,10.00
2022-12-08T12:50:09.506Z,16.43
2022-12-08T12:52:53.236Z,10.43
2022-12-08T12:55:54.925Z,9.30
2022-12-08T12:58:42.433Z,11.00
2022-12-08T13:01:51.525Z,8.40
2022-12-08T13:04:22.309Z,9.70
2022-12-08T13:06:53.902Z,9.33
2022-12-08T13:09:33.329Z,9.10
2022-12-08T13:12:22.688Z,10.87
2022-12-08T13:14:56.226Z,8.47
2022-12-08T13:17:32.842Z,10.80
2022-12-08T13:20:08.143Z,18.63
2022-12-08T13:23:14.946Z,12.10
2022-12-08T13:25:55.533Z,7.83
2022-12-08T13:28:31.315Z,11.10
2022-12-08T13:31:02.890Z,13.63
2022-12-08T13:33:36.555Z,9.63
2022-12-08T13:36:23.814Z,11.50
2022-12-08T13:39:00.768Z,7.80
2022-12-08T13:41:39.845Z,9.00
2022-12-08T13:47:33.843Z,7.37
2022-12-08T13:59:09.051Z,6.17
2022-12-08T14:01:48.498Z,5.23
2022-12-08T14:04:42.514Z,7.23
2022-12-08T14:07:14.623Z,5.37
2022-12-08T14:09:45.710Z,8.60
2022-12-08T14:12:23.553Z,5.10
2022-12-08T14:15:04.379Z,7.90
2022-12-08T14:17:38.374Z,13.83
2022-12-08T14:20:25.158Z,10.80
2022-12-08T14:22:57.094Z,10.80
2022-12-08T14:25:29.648Z,7.27
2022-12-08T14:28:04.703Z,14.40
2022-12-08T14:30:37.817Z,8.23
2022-12-08T14:33:19.091Z,7.10
2022-12-08T14:35:54.898Z,7.50
2022-12-08T14:38:28.806Z,9.87
2022-12-08T14:41:07.987Z,10.07
2022-12-08T14:43:38.135Z,7.07
2022-12-08T14:46:24.455Z,10.13
2022-12-08T14:48:58.792Z,8.33
2022-12-08T14:51:36.836Z,9.60
2022-12-08T14:54:14.752Z,11.93
2022-12-08T14:56:54.829Z,9.60
2022-12-08T14:59:30.708Z,10.50
2022-12-08T15:02:25.304Z,13.73
2022-12-08T15:05:06.127Z,8.23
2022-12-08T15:07:49.479Z,8.80
2022-12-08T15:10:31.023Z,8.17
2022-12-08T15:13:09.116Z,10.73
2022-12-08T15:15:52.295Z,10.47
2022-12-08T15:18:31.728Z,10.17
2022-12-08T15:21:12.801Z,11.70
2022-12-08T15:23:46.514Z,16.30
2022-12-08T15:26:24.312Z,15.13
2022-12-08T15:28:55.217Z,12.43
2022-12-08T15:31:25.339Z,16.13
2022-12-08T15:33:55.435Z,15.73
2022-12-08T15:36:28.008Z,12.77
2022-12-08T15:38:58.294Z,13.47
2022-12-08T15:41:28.311Z,12.07
2022-12-08T15:43:58.369Z,13.63
2022-12-08T15:46:28.510Z,17.63
2022-12-08T15:48:58.629Z,11.50
2022-12-08T15:51:36.371Z,10.10
2022-12-08T15:54:06.738Z,12.23
2022-12-08T15:56:45.411Z,14.43
2022-12-08T15:59:28.166Z,11.37
2022-12-08T16:01:58.292Z,13.23
2022-12-08T16:05:11.937Z,18.13
2022-12-08T16:07:28.346Z,12.73
2022-12-08T16:09:59.709Z,11.70
2022-12-08T16:15:59.285Z,17.37
2022-12-08T16:18:31.462Z,19.63
2022-12-08T16:21:26.820Z,21.17
2022-12-08T16:23:55.104Z,17.43
2022-12-08T16:27:28.427Z,15.87
2022-12-08T16:29:22.919Z,19.53
2022-12-08T16:31:53.170Z,15.77
2022-12-08T16:34:23.242Z,19.20
2022-12-08T16:36:53.934Z,12.77
2022-12-08T16:39:26.691Z,13.50
2022-12-08T16:42:09.153Z,20.37
2022-12-08T16:47:42.332Z,16.73
2022-12-08T16:50:17.590Z,17.27
2022-12-08T16:53:00.422Z,17.33
2022-12-08T16:55:43.329Z,14.40
2022-12-08T17:09:18.546Z,19.07
2022-12-08T17:18:55.324Z,22.00
2022-12-08T17:24:42.158Z,19.83
2022-12-08T17:27:12.142Z,24.20
2022-12-08T17:29:42.191Z,18.13
2022-12-08T17:32:12.249Z,20.17
2022-12-08T17:34:42.359Z,22.90
2022-12-08T17:37:12.498Z,15.77
2022-12-08T17:39:45.270Z,18.07
2022-12-08T17:42:15.368Z,18.50
2022-12-08T17:44:46.889Z,17.70
2022-12-08T17:47:16.913Z,20.87
2022-12-08T17:49:47.004Z,20.67
2022-12-08T17:52:17.156Z,17.53
2022-12-08T17:54:49.864Z,14.43
2022-12-08T17:57:19.905Z,18.13
2022-12-08T17:59:49.971Z,23.70
2022-12-08T18:02:20.047Z,23.67
2022-12-08T18:04:50.338Z,24.80
2022-12-08T18:07:20.392Z,27.00
2022-12-08T18:09:54.842Z,25.80
2022-12-08T18:12:25.098Z,18.60
2022-12-08T18:14:55.121Z,25.53
2022-12-08T18:17:25.189Z,16.57
2022-12-08T18:19:55.293Z,19.03
2022-12-08T18:22:26.869Z,28.03
2022-12-08T18:24:59.526Z,22.03
2022-12-08T18:27:29.891Z,18.20
2022-12-08T18:30:00.537Z,22.00
2022-12-08T18:32:30.746Z,25.20
2022-12-08T18:35:00.849Z,16.17
2022-12-08T18:37:30.984Z,20.03
2022-12-08T18:40:03.806Z,21.23
2022-12-08T18:42:34.079Z,16.87
2022-12-08T18:45:06.873Z,23.57
2022-12-08T18:47:40.046Z,26.17
2022-12-08T18:50:12.329Z,19.57
2022-12-08T18:52:42.523Z,24.27
2022-12-08T18:55:15.405Z,20.57
2022-12-08T18:57:46.396Z,21.67
2022-12-08T19:00:21.539Z,27.73
2022-12-08T19:02:51.970Z,25.57
2022-12-08T19:05:22.250Z,24.50
2022-12-08T19:07:52.552Z,26.50
2022-12-08T19:10:25.320Z,38.20
2022-12-08T19:12:56.216Z,28.13
2022-12-08T19:15:26.279Z,28.00
2022-12-08T19:17:56.562Z,23.53
2022-12-08T19:20:27.445Z,22.93
2022-12-08T19:22:57.591Z,19.50
2022-12-08T19:25:30.236Z,19.90
2022-12-08T19:28:00.262Z,23.00
2022-12-08T19:30:30.321Z,20.17
2022-12-08T19:33:00.550Z,20.13
2022-12-08T19:35:30.596Z,20.80
2022-12-08T19:38:00.643Z,26.00
2022-12-08T19:40:45.859Z,23.80
2022-12-08T19:43:32.536Z,20.80
2022-12-08T19:46:02.881Z,67.13
2022-12-08T19:48:33.037Z,70.63
2022-12-08T19:51:03.050Z,55.93
2022-12-08T19:53:33.178Z,54.23
2022-12-08T19:56:06.602Z,54.50
2022-12-08T19:58:36.632Z,74.10
2022-12-08T20:01:07.006Z,50.63
2022-12-08T20:03:37.225Z,66.13
2022-12-08T20:06:07.809Z,69.70
2022-12-08T20:08:37.980Z,59.23
2022-12-08T20:11:10.756Z,52.43
2022-12-08T20:13:45.698Z,68.53
2022-12-08T20:16:16.619Z,74.20
2022-12-08T20:18:48.607Z,46.60
2022-12-08T20:21:19.448Z,49.63
2022-12-08T20:23:49.984Z,37.33
2022-12-08T20:26:25.384Z,36.93
2022-12-08T20:28:55.768Z,31.93
2022-12-08T20:31:28.709Z,30.93
2022-12-08T20:33:59.162Z,31.17
2022-12-08T20:36:29.949Z,37.63
2022-12-08T20:39:00.825Z,26.07
2022-12-08T20:41:38.810Z,28.93
2022-12-08T20:44:10.064Z,31.13
2022-12-08T20:46:43.735Z,28.50
2022-12-08T20:49:16.716Z,27.53
2022-12-08T20:51:47.298Z,27.20
2022-12-08T20:54:17.460Z,26.03
2022-12-08T20:56:50.267Z,25.23
2022-12-08T20:59:20.828Z,25.83
2022-12-08T21:01:51.044Z,34.37
2022-12-08T21:04:21.821Z,36.13
2022-12-08T21:06:52.803Z,31.53
2022-12-08T21:09:23.014Z,30.73
2022-12-08T21:11:56.113Z,21.57
2022-12-08T21:14:26.136Z,24.10
2022-12-08T21:16:56.346Z,31.50
2022-12-08T21:19:26.868Z,33.50
2022-12-08T21:21:57.061Z,28.70
2022-12-08T21:24:33.542Z,32.70
2022-12-08T21:27:06.980Z,23.00
2022-12-08T21:29:37.399Z,26.97
2022-12-08T21:32:08.299Z,27.27
2022-12-08T21:34:38.330Z,26.33
2022-12-08T21:37:08.576Z,26.03
2022-12-08T21:39:38.861Z,34.87
2022-12-08T21:42:27.971Z,38.50
2022-12-08T21:45:02.443Z,21.73
2022-12-08T21:47:32.646Z,30.43
2022-12-08T21:50:03.104Z,23.80
2022-12-08T21:52:33.400Z,26.47
2022-12-08T21:55:03.477Z,27.20
2022-12-08T21:57:36.259Z,24.03
2022-12-08T22:00:08.063Z,37.90
2022-12-08T22:02:38.609Z,27.13
2022-12-08T22:05:10.496Z,24.23
2022-12-08T22:07:43.648Z,18.90
2022-12-08T22:10:14.760Z,27.23
2022-12-08T22:12:47.612Z,30.73
2022-12-08T22:15:18.250Z,27.77
2022-12-08T22:17:48.514Z,22.93
2022-12-08T22:20:19.789Z,23.33
2022-12-08T22:22:49.968Z,22.03
2022-12-08T22:25:21.542Z,25.90
2022-12-08T22:27:54.507Z,27.50
2022-12-08T22:30:24.646Z,29.27
2022-12-08T22:32:55.549Z,28.53
2022-12-08T22:35:26.072Z,26.47
2022-12-08T22:37:56.213Z,28.50
2022-12-08T22:40:26.369Z,25.90
2022-12-08T22:42:59.307Z,30.27
2022-12-08T22:45:29.983Z,24.90
2022-12-08T22:48:00.138Z,21.93
2022-12-08T22:50:30.417Z,27.20
2022-12-08T22:53:00.554Z,20.83
2022-12-08T22:55:30.761Z,29.33
2022-12-08T22:58:03.378Z,20.17
2022-12-08T23:00:33.436Z,21.23
2022-12-08T23:03:03.690Z,21.47
2022-12-08T23:05:39.028Z,26.27
2022-12-08T23:08:11.653Z,20.47
2022-12-08T23:10:43.565Z,21.27
2022-12-08T23:13:17.725Z,19.60
2022-12-08T23:15:48.311Z,20.47
2022-12-08T23:18:21.212Z,22.27
2022-12-08T23:20:51.299Z,22.60
2022-12-08T23:23:21.357Z,23.60
2022-12-08T23:25:51.475Z,22.33
2022-12-08T23:28:24.234Z,33.20
2022-12-08T23:30:54.558Z,25.53
2022-12-08T23:33:25.146Z,22.17
2022-12-08T23:36:00.000Z,27.70
2022-12-08T23:38:30.317Z,21.57
2022-12-08T23:41:04.409Z,25.70
2022-12-08T23:43:37.871Z,30.57
2022-12-08T23:46:08.136Z,26.10
2022-12-08T23:48:38.183Z,29.83
2022-12-08T23:51:08.784Z,27.63
2022-12-08T23:53:40.301Z,29.60
2022-12-08T23:56:15.566Z,26.37
2022-12-08T23:58:49.288Z,23.00
